Fremont, CA

7:54 AM PST on December 26, 2014 (GMT -0800)
Fremont, CA | Change Station
CLOSE
Current Station
Personal Weather Station
Location: Fremont, CA
Elevation: 62 ft
Nearby Weather Stations

Elev 62 ft 37.48 °N, 121.92 °W | Updated 34 days ago

Clear
Clear
50 °F
Feels Like 50 °F
N
8
Wind Variable Wind from North
Gusts 11 mph

Today
High -- | Low -- °F
--% Chance of Precip.
Yesterday
High -- | Low -- °F
Precip. -- in
7:20 AM 4:56 PM
Waxing Crescent, 27% visible
Pressure 30.17 in
Visibility 10.0 miles
Clouds Clear
Dew Point 39 °F
Humidity 63%
Rainfall 0.00 in
Snow Depth Not available.
UV 0 out of 12
Pollen 5.90 out of 12
Air Quality Not available.
Flu Activity Not available.
METAR KNUQ 261456Z 23003KT 10SM CLR 06/00 A3017 RMK AO2 SLP217 T00560000 53010

More Conditions Fewer Conditions

Pressure 30.17 in
Visibility 10.0 miles
Clouds Clear
Dew Point 39 °F
Humidity 63%
Rainfall 0.00 in
Snow Depth Not available.
UV 0 out of 12
Pollen 5.90 out of 12
Air Quality Not available.
Flu Activity Not available.
METAR KNUQ 261456Z 23003KT 10SM CLR 06/00 A3017 RMK AO2 SLP217 T00560000 53010

More Conditions Fewer Conditions

10-Day Weather Forecast

Almanac

Astronomy

Dec. 26, 2014 Rise Set
Actual Time
Civil Twilight
Nautical Twilight
Astronomical Twilight
Moon
Length of Visible Light
Length of Day
Tomorrow will be .
, % of the Moon is Illuminated

Today's Extremes

State Highs State Lows

Community

WunderPhotos

Upload Photos

1,780,620 photos uploaded!

WunderBlogs® & News

Nearby

Air Quality

  Air Quality AQ Index Pollutant
Not available.

Snow Depth

Station Depth Elevation

Earthquake Activity

City Distance Mag. Time & Date
Minimum magnitude displayed is 2.5.

Coastal Water Temperatures

Place Temperature

Nearby Weather Stations